createdAt,value
2018-12-26T00:02:29.442Z,6.83
2018-12-26T00:05:17.622Z,6.63
2018-12-26T00:07:58.894Z,8.00
2018-12-26T00:10:39.575Z,7.73
2018-12-26T00:13:20.457Z,7.63
2018-12-26T00:16:01.121Z,11.23
2018-12-26T00:18:41.904Z,11.27
2018-12-26T00:21:22.471Z,7.27
2018-12-26T00:24:03.636Z,5.27
2018-12-26T00:26:44.265Z,5.93
2018-12-26T00:29:25.142Z,15.33
2018-12-26T00:32:05.940Z,14.80
2018-12-26T00:34:46.785Z,9.37
2018-12-26T00:37:27.896Z,14.43
2018-12-26T00:40:08.800Z,12.43
2018-12-26T00:42:49.928Z,7.67
2018-12-26T00:45:30.748Z,5.83
2018-12-26T00:48:11.366Z,6.00
2018-12-26T00:50:52.277Z,6.40
2018-12-26T00:53:21.224Z,11.13
2018-12-26T00:59:09.202Z,5.40
2018-12-26T01:01:49.690Z,6.13
2018-12-26T01:04:37.761Z,4.27
2018-12-26T01:07:06.677Z,15.80
2018-12-26T01:09:54.820Z,14.67
2018-12-26T01:12:35.924Z,7.70
2018-12-26T01:15:17.094Z,6.13
2018-12-26T01:17:58.309Z,14.27
2018-12-26T01:20:38.917Z,11.30
2018-12-26T01:23:19.688Z,5.57
2018-12-26T01:26:00.537Z,6.37
2018-12-26T01:28:41.500Z,5.77
2018-12-26T01:31:22.281Z,12.47
2018-12-26T01:34:10.360Z,7.67
2018-12-26T01:36:58.477Z,5.80
2018-12-26T01:42:40.804Z,17.07
2018-12-26T01:45:21.677Z,12.50
2018-12-26T01:48:02.824Z,5.60
2018-12-26T01:50:43.524Z,10.40
2018-12-26T01:53:24.333Z,6.00
2018-12-26T01:56:05.158Z,14.67
2018-12-26T01:58:46.331Z,16.80
2018-12-26T02:01:26.977Z,6.63
2018-12-26T02:04:07.839Z,7.50
2018-12-26T02:06:48.537Z,5.87
2018-12-26T02:09:29.432Z,8.50
2018-12-26T02:12:10.138Z,8.00
2018-12-26T02:14:51.188Z,5.97
2018-12-26T02:17:31.956Z,8.80
2018-12-26T02:20:12.524Z,9.90
2018-12-26T02:22:51.708Z,10.07
2018-12-26T02:28:33.793Z,5.77
2018-12-26T02:31:14.115Z,6.03
2018-12-26T02:33:54.908Z,10.33
2018-12-26T02:36:35.568Z,6.77
2018-12-26T02:39:16.278Z,7.07
2018-12-26T02:48:07.561Z,6.77
2018-12-26T02:50:48.103Z,9.23
2018-12-26T02:53:28.762Z,6.30
2018-12-26T02:56:09.617Z,10.13
2018-12-26T02:58:50.365Z,6.83
2018-12-26T03:01:38.348Z,6.73
2018-12-26T03:07:13.353Z,7.50
2018-12-26T03:09:54.504Z,6.97
2018-12-26T03:12:35.185Z,6.63
2018-12-26T03:15:16.081Z,6.27
2018-12-26T03:17:56.660Z,5.60
2018-12-26T03:23:19.925Z,4.57
2018-12-26T03:26:08.080Z,3.57
2018-12-26T03:28:49.651Z,3.87
2018-12-26T03:31:30.077Z,3.40
2018-12-26T03:34:10.924Z,3.17
2018-12-26T03:36:51.561Z,2.97
2018-12-26T03:39:32.293Z,3.17
2018-12-26T03:42:13.233Z,2.53
2018-12-26T03:44:54.057Z,2.27
2018-12-26T03:47:34.810Z,2.50
2018-12-26T03:50:15.774Z,1.97
2018-12-26T03:52:56.550Z,1.97
2018-12-26T03:55:37.401Z,4.33
2018-12-26T03:58:18.145Z,3.63
2018-12-26T04:00:59.096Z,3.03
2018-12-26T04:03:28.096Z,5.30
2018-12-26T04:06:16.237Z,7.07
2018-12-26T04:12:06.258Z,3.77
2018-12-26T04:14:47.242Z,6.67
2018-12-26T04:17:28.229Z,6.07
2018-12-26T04:20:08.983Z,4.77
2018-12-26T04:22:49.818Z,4.90
2018-12-26T04:25:30.509Z,3.90
2018-12-26T04:28:11.569Z,6.10
2018-12-26T04:30:52.557Z,4.10
2018-12-26T04:33:33.338Z,3.93
2018-12-26T04:36:14.464Z,3.13
2018-12-26T04:38:55.301Z,6.77
2018-12-26T04:41:36.222Z,6.60
2018-12-26T04:44:05.237Z,3.80
2018-12-26T04:46:53.357Z,3.83
2018-12-26T04:49:34.458Z,2.63
2018-12-26T04:52:14.900Z,5.60
2018-12-26T04:54:56.447Z,3.63
2018-12-26T04:57:37.832Z,4.50
2018-12-26T05:00:18.557Z,4.80
2018-12-26T05:02:59.268Z,6.63
2018-12-26T05:05:40.202Z,2.40
2018-12-26T05:08:21.046Z,4.27
2018-12-26T05:11:01.768Z,3.47
2018-12-26T05:13:42.427Z,4.83
2018-12-26T05:16:23.218Z,4.23
2018-12-26T05:19:04.016Z,6.70
2018-12-26T05:21:44.813Z,5.07
2018-12-26T05:24:25.693Z,4.33
2018-12-26T05:27:06.544Z,2.63
2018-12-26T05:29:48.133Z,3.33
2018-12-26T05:32:29.224Z,4.43
2018-12-26T05:35:10.477Z,3.67
2018-12-26T05:37:51.472Z,3.93
2018-12-26T05:40:34.966Z,4.17
2018-12-26T05:43:15.824Z,3.00
2018-12-26T05:45:56.700Z,4.43
2018-12-26T05:48:37.750Z,2.50
2018-12-26T05:51:18.460Z,3.47
2018-12-26T05:53:59.096Z,4.27
2018-12-26T05:56:40.314Z,3.07
2018-12-26T05:59:09.220Z,2.90
2018-12-26T06:01:50.367Z,3.17
2018-12-26T06:04:31.016Z,4.73
2018-12-26T06:07:12.032Z,3.30
2018-12-26T06:09:52.785Z,4.97
2018-12-26T06:12:33.617Z,6.73
2018-12-26T06:15:14.205Z,3.50
2018-12-26T06:17:55.164Z,5.27
2018-12-26T06:20:36.248Z,4.87
2018-12-26T06:23:17.305Z,2.47
2018-12-26T06:25:57.677Z,2.80
2018-12-26T06:28:38.485Z,2.73
2018-12-26T06:31:19.237Z,4.80
2018-12-26T06:33:59.628Z,4.73
2018-12-26T06:36:40.385Z,5.80
2018-12-26T06:39:21.279Z,5.43
2018-12-26T06:42:01.850Z,3.73
2018-12-26T06:44:42.888Z,4.60
2018-12-26T06:47:23.894Z,4.53
2018-12-26T06:50:05.133Z,4.03
2018-12-26T06:52:45.942Z,2.77
2018-12-26T06:55:26.670Z,2.83
2018-12-26T06:58:07.559Z,3.90
2018-12-26T07:00:48.581Z,4.87
2018-12-26T07:03:29.408Z,5.23
2018-12-26T07:06:08.605Z,3.37
2018-12-26T07:08:56.716Z,6.33
2018-12-26T07:11:37.601Z,5.03
2018-12-26T07:14:18.341Z,5.33
2018-12-26T07:16:59.406Z,5.23
2018-12-26T07:19:40.338Z,5.60
2018-12-26T07:22:20.757Z,3.50
2018-12-26T07:25:01.176Z,2.70
2018-12-26T07:27:41.973Z,2.77
2018-12-26T07:30:22.749Z,2.17
2018-12-26T07:33:03.997Z,3.20
2018-12-26T07:35:33.070Z,3.97
2018-12-26T07:38:21.176Z,1.73
2018-12-26T07:41:02.395Z,2.67
2018-12-26T07:43:42.971Z,2.77
2018-12-26T07:46:23.762Z,1.80
2018-12-26T07:49:04.304Z,2.60
2018-12-26T07:51:44.642Z,2.77
2018-12-26T07:54:25.826Z,2.60
2018-12-26T07:57:06.944Z,2.03
2018-12-26T07:59:47.272Z,3.53
2018-12-26T08:02:28.220Z,2.83
2018-12-26T08:05:09.048Z,3.67
2018-12-26T08:07:50.196Z,2.10
2018-12-26T08:10:31.424Z,1.87
2018-12-26T08:13:12.042Z,1.93
2018-12-26T08:15:53.134Z,4.97
2018-12-26T08:18:21.956Z,2.53
2018-12-26T08:21:10.108Z,2.20
2018-12-26T08:23:51.151Z,3.10
2018-12-26T08:26:32.156Z,2.23
2018-12-26T08:29:13.197Z,2.50
2018-12-26T08:31:53.869Z,6.43
2018-12-26T08:34:34.459Z,2.30
2018-12-26T08:37:15.486Z,3.03
2018-12-26T08:39:56.376Z,2.80
2018-12-26T08:42:38.045Z,2.70
2018-12-26T08:45:17.491Z,2.40
2018-12-26T08:48:05.696Z,2.10
2018-12-26T08:50:34.817Z,1.80
2018-12-26T08:56:23.181Z,2.27
2018-12-26T08:59:04.324Z,1.57
2018-12-26T09:01:45.169Z,3.53
2018-12-26T09:04:25.996Z,3.10
2018-12-26T09:07:06.832Z,5.43
2018-12-26T09:09:47.225Z,6.07
2018-12-26T09:12:28.121Z,5.00
2018-12-26T09:15:09.151Z,5.97
2018-12-26T09:17:49.916Z,5.17
2018-12-26T09:20:30.875Z,5.63
2018-12-26T09:23:11.526Z,5.33
2018-12-26T09:25:52.397Z,3.23
2018-12-26T09:28:33.211Z,3.97
2018-12-26T09:31:14.038Z,3.20
2018-12-26T09:33:42.860Z,3.93
2018-12-26T09:36:30.901Z,3.17
2018-12-26T09:39:18.947Z,3.20
2018-12-26T09:44:55.060Z,3.57
2018-12-26T09:47:43.076Z,4.77
2018-12-26T09:50:31.607Z,3.90
2018-12-26T09:53:12.348Z,3.50
2018-12-26T09:55:53.215Z,3.93
2018-12-26T09:58:34.105Z,3.23
2018-12-26T10:01:03.021Z,2.53
2018-12-26T10:03:51.037Z,2.27
2018-12-26T10:06:31.852Z,1.93
2018-12-26T10:09:12.662Z,2.17
2018-12-26T10:11:53.733Z,1.70
2018-12-26T10:14:34.384Z,2.20
2018-12-26T10:17:15.177Z,2.37
2018-12-26T10:19:55.860Z,1.97
2018-12-26T10:22:36.484Z,2.73
2018-12-26T10:25:17.324Z,3.43
2018-12-26T10:27:58.020Z,2.93
2018-12-26T10:30:38.896Z,3.90
2018-12-26T10:33:19.740Z,2.60
2018-12-26T10:36:00.555Z,5.57
2018-12-26T10:38:41.295Z,3.27
2018-12-26T10:41:22.120Z,2.03
2018-12-26T10:44:03.040Z,1.90
2018-12-26T10:46:44.228Z,2.20
2018-12-26T10:49:24.969Z,2.73
2018-12-26T10:52:06.095Z,2.30
2018-12-26T10:54:47.021Z,2.40
2018-12-26T10:57:28.025Z,2.40
2018-12-26T11:00:08.753Z,2.77
2018-12-26T11:02:49.209Z,2.80
2018-12-26T11:05:29.970Z,2.40
2018-12-26T11:08:10.593Z,2.10
2018-12-26T11:10:51.393Z,2.37
2018-12-26T11:13:32.292Z,2.87
2018-12-26T11:16:13.348Z,1.67
2018-12-26T11:18:54.012Z,3.07
2018-12-26T11:21:35.156Z,2.23
2018-12-26T11:24:15.900Z,2.70
2018-12-26T11:26:56.735Z,2.40
2018-12-26T11:29:37.600Z,2.17
2018-12-26T11:32:18.790Z,3.00
2018-12-26T11:34:59.471Z,2.83
2018-12-26T11:37:39.989Z,3.33
2018-12-26T11:40:21.061Z,2.60
2018-12-26T11:43:01.777Z,3.50
2018-12-26T11:45:42.457Z,2.97
2018-12-26T11:48:23.222Z,2.43
2018-12-26T11:51:03.989Z,3.27
2018-12-26T11:53:44.967Z,2.30
2018-12-26T11:56:25.711Z,3.80
2018-12-26T11:58:54.644Z,2.50
2018-12-26T12:01:42.776Z,3.33
2018-12-26T12:04:23.813Z,3.23
2018-12-26T12:07:11.840Z,2.40
2018-12-26T12:09:52.956Z,2.57
2018-12-26T12:12:33.845Z,2.47
2018-12-26T12:15:15.220Z,3.07
2018-12-26T12:17:55.942Z,5.63
2018-12-26T12:20:37.260Z,5.67
2018-12-26T12:23:17.963Z,3.90
2018-12-26T12:25:58.746Z,4.57
2018-12-26T12:28:40.004Z,3.57
2018-12-26T12:31:20.384Z,3.30
2018-12-26T12:34:01.226Z,4.40
2018-12-26T12:36:42.129Z,3.17
2018-12-26T12:39:23.331Z,2.90
2018-12-26T12:42:04.357Z,2.97
2018-12-26T12:44:45.134Z,3.20
2018-12-26T12:47:25.507Z,3.50
2018-12-26T12:50:06.564Z,4.43
2018-12-26T12:52:48.673Z,4.07
2018-12-26T12:55:29.515Z,5.67
2018-12-26T12:57:58.511Z,3.30
2018-12-26T13:00:46.584Z,4.13
2018-12-26T13:03:34.668Z,4.07
2018-12-26T13:12:18.352Z,2.60
2018-12-26T13:14:58.916Z,3.20
2018-12-26T13:17:39.714Z,4.23
2018-12-26T13:20:20.451Z,2.67
2018-12-26T13:23:01.596Z,2.90
2018-12-26T13:25:42.586Z,3.90
2018-12-26T13:28:23.280Z,3.40
2018-12-26T13:31:05.034Z,3.57
2018-12-26T13:33:46.163Z,3.97
2018-12-26T13:36:27.484Z,6.77
2018-12-26T13:39:08.102Z,3.90
2018-12-26T13:41:48.982Z,5.03
2018-12-26T13:44:30.137Z,3.83
2018-12-26T13:47:17.080Z,3.80
2018-12-26T13:49:58.214Z,4.73
2018-12-26T13:52:39.410Z,3.13
2018-12-26T13:55:20.202Z,2.70
2018-12-26T13:58:01.189Z,3.37
2018-12-26T14:00:42.148Z,3.10
2018-12-26T14:03:22.824Z,3.00
2018-12-26T14:06:04.005Z,3.33
2018-12-26T14:08:46.800Z,3.40
2018-12-26T14:11:15.749Z,5.13
2018-12-26T14:13:44.614Z,4.90
2018-12-26T14:16:32.811Z,3.37
2018-12-26T14:19:20.836Z,4.80
2018-12-26T14:22:01.304Z,5.77
2018-12-26T14:24:41.752Z,6.10
2018-12-26T14:27:10.734Z,5.83
2018-12-26T14:29:58.968Z,5.60
2018-12-26T14:32:40.387Z,7.83
2018-12-26T14:35:20.781Z,5.90
2018-12-26T14:38:01.530Z,5.70
2018-12-26T14:40:42.503Z,5.77
2018-12-26T14:43:23.042Z,3.57
2018-12-26T14:46:03.765Z,3.90
2018-12-26T14:48:44.764Z,2.63
2018-12-26T14:51:13.758Z,2.70
2018-12-26T14:53:42.796Z,2.43
2018-12-26T14:56:32.900Z,2.57
2018-12-26T14:59:13.446Z,2.37
2018-12-26T15:01:54.309Z,1.83
2018-12-26T15:04:35.023Z,2.83
2018-12-26T15:07:04.026Z,2.27
2018-12-26T15:09:52.377Z,1.90
2018-12-26T15:12:33.123Z,2.37
2018-12-26T15:15:13.917Z,1.53
2018-12-26T15:17:54.910Z,1.90
2018-12-26T15:20:35.805Z,2.57
2018-12-26T15:23:16.737Z,2.73
2018-12-26T15:25:57.337Z,2.30
2018-12-26T15:28:38.148Z,1.80
2018-12-26T15:31:18.812Z,2.50
2018-12-26T15:33:59.828Z,1.60
2018-12-26T15:36:40.382Z,1.40
2018-12-26T15:39:21.254Z,1.57
2018-12-26T15:42:02.048Z,1.50
2018-12-26T15:44:43.037Z,2.17
2018-12-26T15:47:23.727Z,2.03
2018-12-26T15:49:52.967Z,1.60
2018-12-26T15:52:41.024Z,1.60
2018-12-26T15:55:29.268Z,2.40
2018-12-26T15:58:10.146Z,3.00
2018-12-26T16:00:50.811Z,3.37
2018-12-26T16:03:31.324Z,1.63
2018-12-26T16:06:12.056Z,2.83
2018-12-26T16:08:52.532Z,3.97
2018-12-26T16:11:33.781Z,3.93
2018-12-26T16:14:14.219Z,7.13
2018-12-26T16:16:54.765Z,4.47
2018-12-26T16:19:35.346Z,2.93
2018-12-26T16:22:16.449Z,3.13
2018-12-26T16:24:57.228Z,2.40
2018-12-26T16:27:38.004Z,5.17
2018-12-26T16:30:20.556Z,3.10
2018-12-26T16:33:00.929Z,2.10
2018-12-26T16:35:41.785Z,2.40
2018-12-26T16:38:22.489Z,2.90
2018-12-26T16:41:03.750Z,2.27
2018-12-26T16:43:44.575Z,2.83
2018-12-26T16:46:25.234Z,2.10
2018-12-26T16:49:05.924Z,3.10
2018-12-26T16:51:46.813Z,2.73
2018-12-26T16:54:27.549Z,3.20
2018-12-26T16:57:08.253Z,2.67
2018-12-26T16:59:49.245Z,2.37
2018-12-26T17:02:29.848Z,4.40
2018-12-26T17:05:10.660Z,4.63
2018-12-26T17:07:51.433Z,3.13
2018-12-26T17:10:32.257Z,2.77
2018-12-26T17:13:12.985Z,3.20
2018-12-26T17:15:54.064Z,2.80
2018-12-26T17:18:34.665Z,7.47
2018-12-26T17:21:15.869Z,5.13
2018-12-26T17:23:56.662Z,7.17
2018-12-26T17:26:36.993Z,6.33
2018-12-26T17:29:17.807Z,4.70
2018-12-26T17:31:46.797Z,10.53
2018-12-26T17:34:27.208Z,4.67
2018-12-26T17:37:08.245Z,5.50
2018-12-26T17:39:48.941Z,7.10
2018-12-26T17:42:30.032Z,14.40
2018-12-26T17:45:11.112Z,9.93
2018-12-26T17:47:52.423Z,7.93
2018-12-26T17:50:32.990Z,6.80
2018-12-26T17:53:13.892Z,5.67
2018-12-26T17:55:54.600Z,4.50
2018-12-26T17:58:35.585Z,4.90
2018-12-26T18:01:16.116Z,5.93
2018-12-26T18:03:56.996Z,3.00
2018-12-26T18:06:37.483Z,4.10
2018-12-26T18:09:27.696Z,4.70
2018-12-26T18:12:16.096Z,2.83
2018-12-26T18:14:57.087Z,4.00
2018-12-26T18:17:37.853Z,4.87
2018-12-26T18:20:18.692Z,5.23
2018-12-26T18:25:21.835Z,9.27
2018-12-26T18:28:09.953Z,7.93
2018-12-26T18:30:58.056Z,13.57
2018-12-26T18:33:38.472Z,7.47
2018-12-26T18:36:19.103Z,5.83
2018-12-26T18:39:00.148Z,4.20
2018-12-26T18:41:40.725Z,4.13
2018-12-26T18:44:09.624Z,4.10
2018-12-26T18:46:57.712Z,3.63
2018-12-26T18:49:26.636Z,9.23
2018-12-26T18:52:14.744Z,4.77
2018-12-26T18:54:55.257Z,11.57
2018-12-26T18:57:36.059Z,5.83
2018-12-26T19:05:55.877Z,3.53
2018-12-26T19:08:37.071Z,3.43
2018-12-26T19:11:18.160Z,5.63
2018-12-26T19:13:59.137Z,3.07
2018-12-26T19:16:39.660Z,3.00
2018-12-26T19:19:20.800Z,5.80
2018-12-26T19:22:01.631Z,5.10
2018-12-26T19:24:42.565Z,9.07
2018-12-26T19:27:23.212Z,10.13
2018-12-26T19:30:03.632Z,7.77
2018-12-26T19:32:44.213Z,5.90
2018-12-26T19:35:25.472Z,7.03
2018-12-26T19:38:06.339Z,4.43
2018-12-26T19:40:46.808Z,4.90
2018-12-26T19:43:27.206Z,4.03
2018-12-26T19:46:08.240Z,7.00
2018-12-26T19:48:49.198Z,4.83
2018-12-26T19:51:28.429Z,5.97
2018-12-26T19:54:09.142Z,7.47
2018-12-26T19:56:49.989Z,6.37
2018-12-26T19:59:30.721Z,4.03
2018-12-26T20:02:11.130Z,3.60
2018-12-26T20:04:54.746Z,3.60
2018-12-26T20:07:35.937Z,6.27
2018-12-26T20:10:16.986Z,4.07
2018-12-26T20:12:57.313Z,3.30
2018-12-26T20:15:38.355Z,6.53
2018-12-26T20:18:19.276Z,3.13
2018-12-26T20:21:03.778Z,4.10
2018-12-26T20:23:44.978Z,3.30
2018-12-26T20:26:25.481Z,3.40
2018-12-26T20:29:06.737Z,4.40
2018-12-26T20:31:47.360Z,5.27
2018-12-26T20:34:27.644Z,5.27
2018-12-26T20:37:08.468Z,4.23
2018-12-26T20:39:49.368Z,3.13
2018-12-26T20:42:30.272Z,3.07
2018-12-26T20:45:11.217Z,5.70
2018-12-26T20:47:52.213Z,3.67
2018-12-26T20:50:33.107Z,3.73
2018-12-26T20:53:13.912Z,3.87
2018-12-26T20:55:54.939Z,6.23
2018-12-26T20:58:35.823Z,9.33
2018-12-26T21:01:16.557Z,5.47
2018-12-26T21:03:45.507Z,5.37
2018-12-26T21:06:33.669Z,7.30
2018-12-26T21:09:21.772Z,5.77
2018-12-26T21:12:03.004Z,4.13
2018-12-26T21:14:43.756Z,6.10
2018-12-26T21:17:24.565Z,3.77
2018-12-26T21:20:05.296Z,5.97
2018-12-26T21:22:46.140Z,4.00
2018-12-26T21:25:27.022Z,5.27
2018-12-26T21:28:07.984Z,4.47
2018-12-26T21:33:31.108Z,3.20
2018-12-26T21:36:19.275Z,3.43
2018-12-26T21:39:01.385Z,2.50
2018-12-26T21:41:41.872Z,3.73
2018-12-26T21:44:22.670Z,3.20
2018-12-26T21:46:51.619Z,5.10
2018-12-26T21:49:39.733Z,4.27
2018-12-26T21:52:20.361Z,4.00
2018-12-26T21:55:01.406Z,2.83
2018-12-26T21:57:42.128Z,2.90
2018-12-26T22:00:22.901Z,2.53
2018-12-26T22:03:04.139Z,2.77
2018-12-26T22:05:45.207Z,2.93
2018-12-26T22:08:25.838Z,4.10
2018-12-26T22:14:05.231Z,2.93
2018-12-26T22:16:46.119Z,4.00
2018-12-26T22:19:27.044Z,6.43
2018-12-26T22:22:07.647Z,3.97
2018-12-26T22:24:48.448Z,2.40
2018-12-26T22:27:29.592Z,2.40
2018-12-26T22:30:11.833Z,3.43
2018-12-26T22:32:52.752Z,3.13
2018-12-26T22:35:33.321Z,3.30
2018-12-26T22:38:14.176Z,4.00
2018-12-26T22:40:54.967Z,3.57
2018-12-26T22:43:23.808Z,3.50
2018-12-26T22:46:11.943Z,4.60
2018-12-26T22:48:40.760Z,4.07
2018-12-26T22:51:28.795Z,2.90
2018-12-26T22:54:09.876Z,2.87
2018-12-26T22:56:50.442Z,2.17
2018-12-26T22:59:31.221Z,3.00
2018-12-26T23:02:19.333Z,3.07
2018-12-26T23:05:07.695Z,2.90
2018-12-26T23:07:48.769Z,3.87
2018-12-26T23:10:17.680Z,3.50
2018-12-26T23:13:05.795Z,2.17
2018-12-26T23:15:54.108Z,2.80
2018-12-26T23:18:34.662Z,2.30
2018-12-26T23:21:03.487Z,1.70
2018-12-26T23:23:51.572Z,2.07
2018-12-26T23:26:32.302Z,1.97
2018-12-26T23:29:12.891Z,2.47
2018-12-26T23:31:54.890Z,1.70
2018-12-26T23:34:36.029Z,1.63
2018-12-26T23:37:16.392Z,1.50
2018-12-26T23:39:57.273Z,1.57
2018-12-26T23:42:38.088Z,1.53
2018-12-26T23:45:19.430Z,1.50
2018-12-26T23:48:00.558Z,1.60
2018-12-26T23:50:41.421Z,1.50
2018-12-26T23:53:22.338Z,1.67
2018-12-26T23:56:03.408Z,1.10
2018-12-26T23:58:44.330Z,1.20
